Terminal Aerodrome Forecast
Issued by NWS

Home | Current Version | Previous Version | Text Only | Print | Product List | Glossary On
Versions: 1 2 3 4 5 6 7 8 9 10 11 12 13 14 15 16 17 18 19
426
FTUS46 KEKA 210538
TAFCEC
TAF
KCEC 210538Z 2106/2206 33008KT P6SM SCT015 SCT030
      TEMPO 2107/2111 P6SM BKN015
     FM212100 33012G22KT P6SM SCT010 BKN020
     FM220300 33009KT P6SM SCT010 BKN020=

USA.gov is the U.S. government's official web portal to all federal, state and local government web resources and services.